Time;durP1;ratioP1;P1;durP2;ratioP2;P2;SDS_P1;SDS_P2;PMS_P1;PMS_P2;Temp;Humidity;BMP_temperature;BMP_pressure;BME280_temperature;BME280_humidity;BME280_pressure;Samples;Min_cycle;Max_cycle;Signal;HPM_P1;HPM_P2
2023/05/09 00:08:10;;;;;;;1999.90;999.90;;;15.20;99.90;;;;;;6665149;89;20387;-78
2023/05/09 00:18:10;;;;;;;1999.90;999.90;;;15.20;99.90;;;;;;6664408;89;20726;-77
2023/05/09 00:28:11;;;;;;;1999.90;999.90;;;15.20;99.90;;;;;;6670295;88;20346;-77
2023/05/09 00:38:12;;;;;;;1999.90;999.90;;;15.10;99.90;;;;;;6666658;89;20313;-78
2023/05/09 00:48:14;;;;;;;1999.90;999.90;;;15.00;99.90;;;;;;6668116;89;20780;-77
2023/05/09 00:58:15;;;;;;;1999.90;999.90;;;15.00;99.90;;;;;;6670584;89;20599;-78
2023/05/09 01:08:29;;;;;;;1999.90;999.90;;;14.70;99.90;;;;;;6667426;89;20205;-77
2023/05/09 01:18:42;;;;;;;1999.90;999.90;;;14.90;99.90;;;;;;6675148;89;20210;-77
2023/05/09 01:28:51;;;;;;;1999.90;999.90;;;15.00;99.90;;;;;;6666890;88;20207;-78
2023/05/09 01:38:53;;;;;;;1999.90;999.90;;;15.00;99.90;;;;;;6666673;88;20206;-78
2023/05/09 01:48:56;;;;;;;1999.90;999.90;;;15.00;99.90;;;;;;6668568;88;20259;-78
2023/05/09 01:58:57;;;;;;;1999.90;999.90;;;15.10;99.90;;;;;;6662219;89;20268;-77
2023/05/09 02:08:58;;;;;;;1999.90;999.90;;;15.10;99.90;;;;;;6670088;89;20251;-77
2023/05/09 02:18:59;;;;;;;1999.90;999.90;;;15.20;99.90;;;;;;6672205;88;20188;-77
2023/05/09 02:29:02;;;;;;;1999.90;999.90;;;15.20;99.90;;;;;;6666989;89;20223;-78
2023/05/09 02:39:02;;;;;;;1999.90;999.90;;;15.20;99.90;;;;;;6666323;89;20201;-77
2023/05/09 02:49:03;;;;;;;1999.90;999.90;;;15.20;99.90;;;;;;6666574;89;20695;-77
2023/05/09 02:59:03;;;;;;;1999.90;999.90;;;15.20;99.90;;;;;;6666751;89;20603;-77
2023/05/09 03:09:04;;;;;;;1999.90;999.90;;;15.30;99.90;;;;;;6666708;89;20612;-77
2023/05/09 03:19:04;;;;;;;1999.90;999.90;;;15.30;99.90;;;;;;6666826;89;20667;-77
2023/05/09 03:29:05;;;;;;;1999.90;999.90;;;15.30;99.90;;;;;;6668012;89;20208;-78
2023/05/09 03:39:07;;;;;;;1999.90;999.90;;;15.20;99.90;;;;;;6670997;89;20214;-77
2023/05/09 03:49:07;;;;;;;1999.90;999.90;;;15.30;99.90;;;;;;6674141;89;20253;-76
2023/05/09 03:59:08;;;;;;;1999.90;999.90;;;15.30;99.90;;;;;;6672953;78;20919;-75
2023/05/09 04:09:08;;;;;;;1999.90;999.90;;;15.30;99.90;;;;;;6668930;89;20679;-75
2023/05/09 04:19:09;;;;;;;1999.90;999.90;;;15.20;99.90;;;;;;6668390;89;20666;-76
2023/05/09 04:29:10;;;;;;;1999.90;999.90;;;15.30;99.90;;;;;;6661367;89;20619;-76
2023/05/09 04:39:11;;;;;;;1999.90;999.90;;;15.30;99.90;;;;;;6660262;89;20643;-76
2023/05/09 04:49:11;;;;;;;1999.90;999.90;;;15.30;99.90;;;;;;6656648;89;20220;-75
2023/05/09 04:59:12;;;;;;;1999.90;999.90;;;15.30;99.90;;;;;;6658925;89;20597;-75
2023/05/09 05:09:12;;;;;;;1999.90;999.90;;;15.30;99.90;;;;;;6659643;89;20679;-76
2023/05/09 05:19:13;;;;;;;1999.90;999.90;;;15.40;99.90;;;;;;6656301;89;21080;-76
2023/05/09 05:29:13;;;;;;;1999.90;999.90;;;15.40;99.90;;;;;;6661242;89;20621;-76
2023/05/09 05:39:14;;;;;;;1999.90;999.90;;;15.50;99.90;;;;;;6661141;89;20225;-76
2023/05/09 05:49:14;;;;;;;1999.90;999.90;;;15.50;99.90;;;;;;6666622;89;20216;-77
2023/05/09 05:59:15;;;;;;;1999.90;999.90;;;15.60;99.90;;;;;;6662064;89;20254;-75
2023/05/09 06:09:16;;;;;;;1999.90;999.90;;;16.00;99.90;;;;;;6659331;89;20364;-76
2023/05/09 06:19:16;;;;;;;1999.90;999.90;;;16.20;99.90;;;;;;6660431;89;20200;-75
2023/05/09 06:29:17;;;;;;;1999.90;999.90;;;16.40;99.90;;;;;;6661721;89;20262;-76
2023/05/09 06:39:18;;;;;;;1999.90;999.90;;;16.70;99.90;;;;;;6661424;89;20215;-76
2023/05/09 06:49:18;;;;;;;1999.90;999.90;;;16.70;99.90;;;;;;6662655;89;20179;-75
2023/05/09 06:59:19;;;;;;;1999.90;999.90;;;16.80;99.90;;;;;;6664394;89;20287;-75
2023/05/09 07:09:19;;;;;;;1999.90;999.90;;;16.90;99.90;;;;;;6665712;89;20232;-75
2023/05/09 07:19:20;;;;;;;1999.90;999.90;;;17.30;99.90;;;;;;6668498;89;20626;-75
2023/05/09 07:29:20;;;;;;;1999.90;999.90;;;17.30;99.90;;;;;;6661118;89;20200;-75
2023/05/09 07:39:21;;;;;;;1999.90;999.90;;;17.50;99.90;;;;;;6662224;89;20223;-76
2023/05/09 07:49:21;;;;;;;1999.90;999.90;;;17.80;99.90;;;;;;6661942;89;20253;-76
2023/05/09 07:59:22;;;;;;;1999.90;999.90;;;18.00;99.90;;;;;;6662698;89;22582;-75
2023/05/09 08:09:22;;;;;;;1999.90;999.90;;;18.10;99.90;;;;;;6669625;89;20263;-75
2023/05/09 08:19:24;;;;;;;1999.90;999.90;;;18.40;99.90;;;;;;6663167;89;20290;-75
2023/05/09 08:29:25;;;;;;;1999.90;999.90;;;18.80;99.90;;;;;;6662444;89;20292;-75
2023/05/09 08:39:25;;;;;;;1999.90;999.90;;;19.10;99.90;;;;;;6659667;89;20183;-75
2023/05/09 08:49:26;;;;;;;1999.90;999.90;;;19.00;99.90;;;;;;6663977;89;20200;-76
2023/05/09 08:59:28;;;;;;;1999.90;999.90;;;19.60;99.90;;;;;;6664866;89;20622;-76
2023/05/09 09:09:29;;;;;;;1999.90;999.90;;;19.70;99.90;;;;;;6663247;89;20186;-76
2023/05/09 09:19:31;;;;;;;1999.90;999.90;;;19.60;99.90;;;;;;6664393;89;20697;-75
2023/05/09 09:29:32;;;;;;;1999.90;999.90;;;19.80;99.90;;;;;;6663564;88;20205;-75
2023/05/09 09:39:33;;;;;;;1999.90;999.90;;;20.90;99.90;;;;;;6662350;89;20200;-75
2023/05/09 09:49:33;;;;;;;1999.90;999.90;;;21.10;99.90;;;;;;6661667;89;20227;-75
2023/05/09 09:59:34;;;;;;;1999.90;999.90;;;21.30;99.90;;;;;;6665263;89;20235;-75
2023/05/09 10:09:36;;;;;;;1999.90;999.90;;;20.60;99.90;;;;;;6678795;78;20200;-78
2023/05/09 10:19:38;;;;;;;1999.90;999.90;;;20.60;99.90;;;;;;6666265;89;20171;-79
2023/05/09 10:29:50;;;;;;;1999.90;999.90;;;21.30;99.90;;;;;;6661645;89;20292;-77
2023/05/09 10:39:52;;;;;;;1999.90;999.90;;;21.20;99.90;;;;;;6669008;88;20319;-78
2023/05/09 10:49:53;;;;;;;1999.90;999.90;;;20.90;99.90;;;;;;6665825;89;20571;-78
2023/05/09 10:59:55;;;;;;;1999.90;999.90;;;20.80;99.90;;;;;;6665985;89;20204;-77
2023/05/09 11:10:18;;;;;;;1999.90;999.90;;;21.00;99.90;;;;;;6665950;88;20398;-77
2023/05/09 11:20:27;;;;;;;1999.90;999.90;;;21.10;99.90;;;;;;6659842;89;20569;-77
2023/05/09 11:30:42;;;;;;;1999.90;999.90;;;21.20;99.90;;;;;;6665556;89;20635;-78
2023/05/09 11:40:43;;;;;;;1999.90;999.90;;;21.60;99.90;;;;;;6649302;89;20200;-77
2023/05/09 11:50:46;;;;;;;1999.90;999.90;;;21.80;99.90;;;;;;6669144;88;20208;-78
2023/05/09 12:00:48;;;;;;;1999.90;999.90;;;22.30;99.90;;;;;;6670305;88;20216;-78
2023/05/09 12:10:48;;;;;;;1999.90;999.90;;;22.70;99.90;;;;;;6665064;89;20189;-77
2023/05/09 12:20:49;;;;;;;1999.90;999.90;;;22.70;99.90;;;;;;6664501;89;20216;-78
2023/05/09 12:30:51;;;;;;;1999.90;999.90;;;23.50;99.90;;;;;;6664759;89;20565;-78
2023/05/09 12:41:03;;;;;;;1999.90;999.90;;;22.70;99.90;;;;;;6664492;89;20753;-78
2023/05/09 12:51:04;;;;;;;1999.90;999.90;;;22.80;99.90;;;;;;6665120;89;20892;-77
2023/05/09 13:01:05;;;;;;;1999.90;999.90;;;22.70;99.90;;;;;;6666054;89;20204;-78
2023/05/09 13:11:10;;;;;;;1999.90;999.90;;;22.60;99.90;;;;;;6665423;89;20249;-77
2023/05/09 13:21:11;;;;;;;1999.90;999.90;;;22.80;99.90;;;;;;6673423;89;20195;-78
2023/05/09 13:31:11;;;;;;;1999.90;999.90;;;22.40;99.90;;;;;;6668125;89;20706;-78
2023/05/09 13:41:18;;;;;;;1999.90;999.90;;;22.60;99.90;;;;;;6675556;88;20226;-79
2023/05/09 13:51:20;;;;;;;1999.90;999.90;;;22.60;99.90;;;;;;6679206;88;20176;-78
2023/05/09 14:01:21;;;;;;;1999.90;999.90;;;22.40;99.90;;;;;;6674217;89;20176;-78
2023/05/09 14:11:21;;;;;;;1999.90;999.90;;;22.10;99.90;;;;;;6672010;89;20200;-78
2023/05/09 14:21:22;;;;;;;1999.90;999.90;;;22.30;99.90;;;;;;6671054;89;20207;-78
2023/05/09 14:31:22;;;;;;;1999.90;999.90;;;22.10;99.90;;;;;;6662221;89;20222;-79
2023/05/09 14:41:23;;;;;;;1999.90;999.90;;;21.70;99.90;;;;;;6668445;89;20266;-78
2023/05/09 14:51:23;;;;;;;1999.90;999.90;;;21.00;99.90;;;;;;6669295;89;20229;-77
2023/05/09 15:01:24;;;;;;;1999.90;999.90;;;19.50;99.90;;;;;;6670833;89;20283;-77
2023/05/09 15:11:25;;;;;;;1999.90;999.90;;;17.50;99.90;;;;;;6675021;89;20715;-76
2023/05/09 15:21:27;;;;;;;1999.90;999.90;;;16.90;99.90;;;;;;6668091;88;20712;-76
2023/05/09 15:31:31;;;;;;;1999.90;999.90;;;16.80;99.90;;;;;;6665576;89;20328;-76
2023/05/09 15:41:32;;;;;;;1999.90;999.90;;;16.70;99.90;;;;;;6665662;88;20223;-74
2023/05/09 15:51:32;;;;;;;1999.90;999.90;;;16.70;99.90;;;;;;6662065;89;20216;-76
2023/05/09 16:01:33;;;;;;;1999.90;999.90;;;16.60;99.90;;;;;;6659861;89;20203;-76
2023/05/09 16:11:34;;;;;;;1999.90;999.90;;;16.70;99.90;;;;;;6667534;89;20203;-78
2023/05/09 16:21:36;;;;;;;1999.90;999.90;;;16.80;99.90;;;;;;6669095;89;20207;-79
2023/05/09 16:31:37;;;;;;;1999.90;999.90;;;16.90;99.90;;;;;;6676278;89;20228;-77
2023/05/09 16:41:37;;;;;;;1999.90;999.90;;;16.80;99.90;;;;;;6668892;89;20211;-79
2023/05/09 16:51:38;;;;;;;1999.90;999.90;;;16.70;99.90;;;;;;6671383;89;20788;-78
2023/05/09 17:01:38;;;;;;;1999.90;999.90;;;16.70;99.90;;;;;;6670151;89;20315;-77
2023/05/09 17:11:39;;;;;;;1999.90;999.90;;;16.70;99.90;;;;;;6669091;89;20531;-78
2023/05/09 17:21:40;;;;;;;1999.90;999.90;;;16.60;99.90;;;;;;6672338;89;20681;-79
2023/05/09 17:31:40;;;;;;;1999.90;999.90;;;16.60;99.90;;;;;;6671647;89;20219;-77
2023/05/09 17:41:41;;;;;;;1999.90;999.90;;;16.50;99.90;;;;;;6672248;89;20210;-77
2023/05/09 17:51:42;;;;;;;1999.90;999.90;;;16.50;99.90;;;;;;6670646;89;20268;-78
2023/05/09 18:01:43;;;;;;;1999.90;999.90;;;16.40;99.90;;;;;;6669000;89;20351;-78
2023/05/09 18:11:43;;;;;;;1999.90;999.90;;;16.40;99.90;;;;;;6670918;89;20278;-78
2023/05/09 18:21:44;;;;;;;1999.90;999.90;;;16.30;99.90;;;;;;6667533;89;20200;-79
2023/05/09 18:31:44;;;;;;;1999.90;999.90;;;16.30;99.90;;;;;;6669285;89;20372;-79
2023/05/09 18:41:45;;;;;;;1999.90;999.90;;;16.20;99.90;;;;;;6666870;89;21248;-78
2023/05/09 18:51:46;;;;;;;1999.90;999.90;;;16.10;99.90;;;;;;6665448;88;20219;-78
2023/05/09 19:01:46;;;;;;;1999.90;999.90;;;16.00;99.90;;;;;;6667521;89;20686;-78
2023/05/09 19:11:47;;;;;;;1999.90;999.90;;;15.90;99.90;;;;;;6668393;88;20256;-81
2023/05/09 19:21:47;;;;;;;1999.90;999.90;;;15.80;99.90;;;;;;6667701;89;20225;-79
2023/05/09 19:31:48;;;;;;;1999.90;999.90;;;15.80;99.90;;;;;;6668185;89;20316;-78
2023/05/09 19:41:48;;;;;;;1999.90;999.90;;;15.70;99.90;;;;;;6675750;89;20213;-79
2023/05/09 19:51:49;;;;;;;1999.90;999.90;;;15.40;99.90;;;;;;6675006;89;20682;-78
2023/05/09 20:01:50;;;;;;;1999.90;999.90;;;15.00;99.90;;;;;;6669708;89;20215;-78
2023/05/09 20:11:50;;;;;;;1999.90;999.90;;;14.80;99.90;;;;;;6668824;89;20238;-78
2023/05/09 20:21:51;;;;;;;1999.90;999.90;;;14.70;99.90;;;;;;6672228;89;20191;-78
2023/05/09 20:31:51;;;;;;;1999.90;999.90;;;14.60;99.90;;;;;;6672012;89;20374;-79
2023/05/09 20:41:54;;;;;;;1999.90;999.90;;;14.50;99.90;;;;;;6670345;89;20207;-78
2023/05/09 20:51:54;;;;;;;1999.90;999.90;;;14.30;99.90;;;;;;6671236;89;20209;-79
2023/05/09 21:01:55;;;;;;;1999.90;999.90;;;14.10;99.90;;;;;;6673878;89;20707;-77
2023/05/09 21:11:56;;;;;;;1999.90;999.90;;;13.90;99.90;;;;;;6674024;88;20187;-77
2023/05/09 21:21:57;;;;;;;1999.90;999.90;;;13.80;99.90;;;;;;6671953;89;20796;-78
2023/05/09 21:31:58;;;;;;;1999.90;999.90;;;13.70;99.90;;;;;;6673280;89;20525;-79
2023/05/09 21:41:58;;;;;;;1999.90;999.90;;;13.50;99.90;;;;;;6674739;89;20227;-76
2023/05/09 21:51:59;;;;;;;1999.90;999.90;;;13.60;99.90;;;;;;6673747;89;20229;-79
2023/05/09 22:01:59;;;;;;;1999.90;999.90;;;13.40;99.90;;;;;;6676042;88;20250;-77
2023/05/09 22:12:00;;;;;;;1999.90;999.90;;;13.40;99.90;;;;;;6681291;78;20619;-76
2023/05/09 22:22:00;;;;;;;1999.90;999.90;;;13.30;99.90;;;;;;6667746;89;20646;-74
2023/05/09 22:32:02;;;;;;;1999.90;999.90;;;13.30;99.90;;;;;;6668407;89;20189;-76
2023/05/09 22:42:03;;;;;;;1999.90;999.90;;;13.30;99.90;;;;;;6669174;89;20188;-77
2023/05/09 22:52:03;;;;;;;1999.90;999.90;;;13.20;99.90;;;;;;6666094;89;20175;-75
2023/05/09 23:02:04;;;;;;;1999.90;999.90;;;13.20;99.90;;;;;;6663952;89;20199;-74
2023/05/09 23:12:05;;;;;;;1999.90;999.90;;;13.10;99.90;;;;;;6663375;89;20222;-76
2023/05/09 23:22:06;;;;;;;1999.90;999.90;;;13.10;99.90;;;;;;6662797;89;20248;-74
2023/05/09 23:32:06;;;;;;;1999.90;999.90;;;13.10;99.90;;;;;;6662057;89;20220;-75
2023/05/09 23:42:07;;;;;;;1999.90;999.90;;;13.10;99.90;;;;;;6666603;89;20598;-75
2023/05/09 23:52:08;;;;;;;1999.90;999.90;;;13.00;99.90;;;;;;6666858;88;20199;-75
